createdAt,value
2022-08-09T00:00:48.565Z,65.62
2022-08-09T00:01:54.566Z,65.91
2022-08-09T00:02:57.112Z,66.11
2022-08-09T00:04:10.028Z,66.18
2022-08-09T00:06:17.699Z,67.20
2022-08-09T00:06:44.313Z,68.40
2022-08-09T00:07:47.524Z,69.09
2022-08-09T00:08:50.457Z,68.51
2022-08-09T00:09:53.621Z,69.73
2022-08-09T00:10:55.303Z,68.87
2022-08-09T00:12:04.578Z,68.34
2022-08-09T00:13:16.971Z,68.71
2022-08-09T00:14:30.649Z,68.45
2022-08-09T00:16:00.142Z,67.99
2022-08-09T00:17:01.736Z,67.53
2022-08-09T00:18:05.994Z,67.74
2022-08-09T00:19:13.515Z,68.39
2022-08-09T00:20:21.183Z,68.72
2022-08-09T00:21:23.735Z,68.95
2022-08-09T00:22:35.082Z,69.06
2022-08-09T00:23:57.368Z,69.14
2022-08-09T00:24:59.989Z,69.36
2022-08-09T00:26:08.674Z,67.98
2022-08-09T00:27:13.012Z,68.05
2022-08-09T00:28:14.791Z,67.49
2022-08-09T00:29:39.582Z,67.57
2022-08-09T00:30:39.164Z,67.95
2022-08-09T00:31:58.401Z,67.37
2022-08-09T00:33:01.779Z,67.76
2022-08-09T00:34:03.576Z,67.05
2022-08-09T00:35:06.305Z,67.07
2022-08-09T00:36:09.451Z,67.31
2022-08-09T00:37:11.154Z,67.86
2022-08-09T00:38:13.689Z,67.94
2022-08-09T00:40:12.391Z,67.82
2022-08-09T00:40:40.113Z,67.61
2022-08-09T00:44:15.133Z,68.93
2022-08-09T00:44:25.668Z,68.28
2022-08-09T00:44:37.870Z,69.65
2022-08-09T00:45:39.530Z,68.79
2022-08-09T00:46:56.865Z,68.99
2022-08-09T00:48:05.596Z,69.06
2022-08-09T00:49:07.606Z,69.71
2022-08-09T00:50:14.828Z,69.86
2022-08-09T00:51:17.843Z,69.58
2022-08-09T00:52:20.434Z,68.20
2022-08-09T00:53:24.279Z,69.01
2022-08-09T00:54:31.367Z,68.05
2022-08-09T00:56:05.521Z,68.30
2022-08-09T00:57:00.686Z,67.93
2022-08-09T00:58:03.150Z,68.59
2022-08-09T00:59:07.623Z,68.14
2022-08-09T01:00:21.725Z,68.09
2022-08-09T01:01:44.863Z,68.40
2022-08-09T01:02:49.471Z,68.83
2022-08-09T01:03:59.311Z,68.75
2022-08-09T01:05:14.251Z,69.52
2022-08-09T01:06:35.139Z,69.96
2022-08-09T01:08:00.960Z,70.32
2022-08-09T01:09:23.279Z,70.94
2022-08-09T01:10:40.095Z,72.16
2022-08-09T01:12:03.149Z,72.60
2022-08-09T01:13:16.874Z,72.37
2022-08-09T01:14:36.727Z,72.49
2022-08-09T01:15:52.611Z,72.11
2022-08-09T01:17:17.893Z,72.07
2022-08-09T01:18:29.894Z,72.80
2022-08-09T01:20:01.692Z,73.57
2022-08-09T01:21:13.586Z,72.94
2022-08-09T01:22:40.726Z,74.61
2022-08-09T01:24:07.447Z,74.22
2022-08-09T01:25:37.463Z,73.53
2022-08-09T01:26:56.160Z,73.88
2022-08-09T01:28:01.060Z,73.46
2022-08-09T01:29:04.534Z,73.95
2022-08-09T01:30:28.843Z,74.07
2022-08-09T01:32:30.653Z,74.07
2022-08-09T01:32:58.037Z,74.66
2022-08-09T01:34:04.282Z,74.30
2022-08-09T01:35:37.510Z,74.16
2022-08-09T01:36:41.955Z,73.50
2022-08-09T01:38:08.231Z,73.91
2022-08-09T01:39:07.541Z,74.22
2022-08-09T01:40:10.312Z,74.49
2022-08-09T01:41:29.836Z,75.29
2022-08-09T01:42:33.519Z,75.06
2022-08-09T01:43:48.025Z,74.72
2022-08-09T01:44:54.900Z,75.21
2022-08-09T01:45:57.998Z,75.20
2022-08-09T01:47:01.721Z,75.70
2022-08-09T01:48:06.191Z,75.25
2022-08-09T01:49:12.775Z,75.58
2022-08-09T01:50:17.139Z,76.17
2022-08-09T01:51:22.830Z,76.78
2022-08-09T01:52:26.211Z,77.25
2022-08-09T01:53:41.464Z,76.75
2022-08-09T01:54:50.693Z,77.22
2022-08-09T01:55:54.376Z,76.94
2022-08-09T01:56:58.930Z,76.35
2022-08-09T01:58:06.780Z,76.83
2022-08-09T01:59:16.098Z,76.69
2022-08-09T02:00:35.279Z,76.53
2022-08-09T02:01:59.103Z,76.35
2022-08-09T02:03:05.112Z,76.42
2022-08-09T02:04:09.728Z,76.63
2022-08-09T02:05:15.342Z,76.75
2022-08-09T02:06:45.552Z,76.72
2022-08-09T02:08:41.014Z,77.13
2022-08-09T02:09:26.948Z,77.09
2022-08-09T02:10:51.032Z,76.23
2022-08-09T02:11:54.451Z,76.67
2022-08-09T02:13:02.939Z,76.95
2022-08-09T02:14:07.839Z,77.05
2022-08-09T02:15:16.664Z,77.31
2022-08-09T02:16:18.921Z,77.11
2022-08-09T02:18:10.611Z,78.97
2022-08-09T02:19:00.395Z,77.46
2022-08-09T02:20:02.431Z,77.71
2022-08-09T02:21:09.466Z,77.34
2022-08-09T02:22:40.661Z,78.16
2022-08-09T02:23:54.540Z,78.14
2022-08-09T02:25:00.219Z,77.15
2022-08-09T02:26:03.447Z,77.70
2022-08-09T02:27:09.026Z,78.29
2022-08-09T02:28:19.130Z,77.39
2022-08-09T02:29:23.808Z,78.25
2022-08-09T02:30:32.428Z,78.30
2022-08-09T02:31:41.166Z,78.06
2022-08-09T02:32:47.576Z,77.88
2022-08-09T02:34:06.737Z,78.19
2022-08-09T02:35:25.703Z,76.90
2022-08-09T02:36:44.979Z,77.12
2022-08-09T02:37:55.508Z,76.81
2022-08-09T02:39:03.180Z,77.28
2022-08-09T02:40:15.745Z,77.28
2022-08-09T02:41:34.024Z,77.93
2022-08-09T02:42:39.419Z,77.56
2022-08-09T02:43:55.132Z,78.56
2022-08-09T02:45:07.195Z,79.30
2022-08-09T02:46:13.380Z,78.84
2022-08-09T02:47:18.920Z,78.52
2022-08-09T02:48:31.225Z,78.77
2022-08-09T02:49:41.353Z,78.53
2022-08-09T02:50:55.756Z,78.60
2022-08-09T02:51:59.613Z,78.53
2022-08-09T02:53:17.376Z,79.53
2022-08-09T02:54:30.887Z,79.46
2022-08-09T02:55:46.372Z,78.43
2022-08-09T02:56:53.921Z,78.99
2022-08-09T02:58:37.039Z,79.45
2022-08-09T02:59:26.658Z,79.93
2022-08-09T03:00:57.657Z,79.57
2022-08-09T03:02:06.701Z,79.17
2022-08-09T03:03:11.390Z,80.37
2022-08-09T03:04:19.110Z,80.05
2022-08-09T03:05:22.821Z,80.24
2022-08-09T03:06:27.612Z,80.83
2022-08-09T03:07:30.884Z,80.84
2022-08-09T03:08:35.853Z,80.64
2022-08-09T03:09:42.617Z,81.21
2022-08-09T03:10:50.900Z,80.07
2022-08-09T03:12:05.492Z,80.61
2022-08-09T03:13:10.123Z,80.30
2022-08-09T03:14:13.476Z,80.90
2022-08-09T03:15:16.100Z,81.73
2022-08-09T03:16:21.294Z,80.91
2022-08-09T03:17:27.048Z,80.22
2022-08-09T03:18:31.305Z,80.16
2022-08-09T03:19:59.520Z,79.90
2022-08-09T03:20:58.026Z,81.22
2022-08-09T03:22:03.225Z,81.08
2022-08-09T03:23:14.945Z,81.77
2022-08-09T03:24:31.717Z,81.78
2022-08-09T03:25:58.035Z,81.61
2022-08-09T03:27:02.928Z,81.16
2022-08-09T03:28:11.273Z,82.08
2022-08-09T03:29:22.772Z,82.55
2022-08-09T03:30:33.188Z,83.34
2022-08-09T03:31:42.385Z,82.81
2022-08-09T03:32:45.784Z,81.26
2022-08-09T03:33:54.545Z,81.38
2022-08-09T03:34:56.794Z,82.46
2022-08-09T03:36:13.510Z,82.18
2022-08-09T03:37:55.754Z,82.06
2022-08-09T03:38:43.060Z,83.01
2022-08-09T03:39:48.702Z,82.96
2022-08-09T03:40:58.077Z,83.08
2022-08-09T03:42:06.109Z,83.95
2022-08-09T03:43:08.617Z,83.33
2022-08-09T03:44:13.175Z,82.18
2022-08-09T03:45:17.400Z,82.13
2022-08-09T03:46:39.330Z,82.97
2022-08-09T03:47:42.075Z,83.79
2022-08-09T03:48:52.971Z,83.35
2022-08-09T03:49:58.257Z,82.67
2022-08-09T03:51:00.800Z,82.58
2022-08-09T03:52:04.389Z,82.19
2022-08-09T03:53:10.765Z,83.02
2022-08-09T03:54:14.695Z,82.35
2022-08-09T03:55:17.850Z,83.49
2022-08-09T03:56:19.768Z,82.28
2022-08-09T03:57:21.825Z,82.92
2022-08-09T03:58:23.641Z,82.47
2022-08-09T03:59:33.006Z,81.83
2022-08-09T04:00:48.951Z,82.56
2022-08-09T04:01:51.506Z,83.01
2022-08-09T04:02:55.577Z,82.90
2022-08-09T04:04:03.851Z,82.06
2022-08-09T04:05:14.009Z,82.24
2022-08-09T04:06:28.916Z,82.56
2022-08-09T04:07:47.836Z,82.70
2022-08-09T04:08:53.564Z,84.20
2022-08-09T04:09:55.441Z,83.82
2022-08-09T04:11:01.588Z,83.30
2022-08-09T04:12:11.768Z,83.87
2022-08-09T04:13:13.874Z,83.26
2022-08-09T04:14:37.305Z,83.54
2022-08-09T04:16:18.613Z,83.76
2022-08-09T04:17:08.959Z,84.46
2022-08-09T04:18:17.796Z,84.43
2022-08-09T04:19:30.369Z,83.00
2022-08-09T04:20:42.046Z,83.15
2022-08-09T04:21:46.366Z,83.22
2022-08-09T04:22:49.044Z,83.17
2022-08-09T04:23:57.669Z,82.96
2022-08-09T04:25:01.460Z,83.04
2022-08-09T04:26:04.835Z,84.33
2022-08-09T04:27:08.399Z,84.07
2022-08-09T04:28:10.532Z,83.59
2022-08-09T04:29:15.779Z,83.65
2022-08-09T04:30:20.940Z,83.22
2022-08-09T04:31:26.287Z,82.82
2022-08-09T04:32:39.798Z,83.43
2022-08-09T04:33:52.799Z,82.74
2022-08-09T04:34:58.697Z,84.25
2022-08-09T04:36:03.260Z,83.76
2022-08-09T04:37:04.872Z,84.31
2022-08-09T04:38:06.571Z,84.81
2022-08-09T04:39:11.317Z,84.62
2022-08-09T04:40:29.117Z,83.60
2022-08-09T04:41:43.955Z,83.80
2022-08-09T04:42:45.718Z,85.10
2022-08-09T04:44:05.266Z,84.34
2022-08-09T04:45:11.616Z,83.80
2022-08-09T04:46:19.435Z,83.11
2022-08-09T04:47:58.559Z,83.12
2022-08-09T04:48:58.405Z,82.48
2022-08-09T04:50:00.420Z,83.30
2022-08-09T04:51:02.047Z,83.77
2022-08-09T04:52:05.136Z,83.22
2022-08-09T04:53:13.161Z,84.66
2022-08-09T04:54:15.367Z,84.01
2022-08-09T04:55:19.074Z,83.38
2022-08-09T04:56:26.111Z,83.26
2022-08-09T04:57:58.444Z,84.13
2022-08-09T04:58:50.810Z,83.47
2022-08-09T04:59:55.619Z,83.13
2022-08-09T05:00:57.908Z,82.70
2022-08-09T05:02:02.916Z,83.06
2022-08-09T05:03:12.877Z,83.54
2022-08-09T05:04:30.871Z,82.77
2022-08-09T05:05:52.089Z,83.50
2022-08-09T05:06:55.004Z,83.15
2022-08-09T05:07:58.302Z,82.18
2022-08-09T05:09:01.269Z,81.41
2022-08-09T05:10:04.327Z,80.96
2022-08-09T05:11:07.478Z,81.89
2022-08-09T05:12:11.162Z,81.26
2022-08-09T05:13:14.617Z,82.85
2022-08-09T05:14:16.339Z,81.22
2022-08-09T05:15:24.698Z,80.95
2022-08-09T05:16:58.215Z,80.08
2022-08-09T05:18:42.646Z,80.00
2022-08-09T05:19:25.700Z,79.97
2022-08-09T05:20:29.726Z,81.20
2022-08-09T05:21:46.442Z,80.39
2022-08-09T05:23:59.498Z,80.13
2022-08-09T05:24:12.181Z,80.30
2022-08-09T05:25:16.490Z,79.85
2022-08-09T05:26:26.643Z,79.31
2022-08-09T05:27:46.306Z,78.66
2022-08-09T05:28:49.679Z,77.57
2022-08-09T05:29:53.837Z,78.39
2022-08-09T05:30:55.974Z,77.29
2022-08-09T05:32:00.599Z,76.90
2022-08-09T05:33:02.255Z,76.44
2022-08-09T05:34:04.027Z,77.27
2022-08-09T05:35:06.306Z,77.17
2022-08-09T05:36:09.355Z,77.90
2022-08-09T05:37:13.874Z,78.12
2022-08-09T05:38:21.960Z,78.18
2022-08-09T05:39:29.542Z,77.92
2022-08-09T05:40:31.515Z,77.72
2022-08-09T05:41:33.160Z,77.48
2022-08-09T05:42:36.303Z,77.67
2022-08-09T05:43:39.002Z,77.85
2022-08-09T05:44:50.469Z,76.80
2022-08-09T05:45:56.659Z,75.06
2022-08-09T05:46:58.954Z,74.61
2022-08-09T05:48:01.262Z,73.92
2022-08-09T05:49:03.337Z,74.08
2022-08-09T05:50:26.744Z,73.08
2022-08-09T05:51:46.073Z,72.85
2022-08-09T05:52:53.842Z,72.10
2022-08-09T05:53:57.339Z,71.44
2022-08-09T05:55:06.716Z,71.78
2022-08-09T05:56:09.119Z,71.50
2022-08-09T05:57:19.189Z,71.40
2022-08-09T05:58:20.999Z,70.34
2022-08-09T05:59:23.042Z,69.96
2022-08-09T06:00:30.225Z,69.51
2022-08-09T06:01:33.899Z,69.08
2022-08-09T06:02:46.800Z,68.82
2022-08-09T06:03:54.740Z,68.99
2022-08-09T06:05:00.706Z,68.85
2022-08-09T06:06:06.001Z,68.66
2022-08-09T06:07:09.349Z,68.81
2022-08-09T06:08:11.423Z,67.60
2022-08-09T06:09:55.105Z,67.70
2022-08-09T06:10:40.658Z,65.90
2022-08-09T06:11:57.325Z,65.15
2022-08-09T06:13:12.507Z,64.19
2022-08-09T06:14:20.737Z,63.49
2022-08-09T06:15:22.544Z,63.40
2022-08-09T06:16:29.604Z,63.21
2022-08-09T06:17:40.350Z,62.40
2022-08-09T06:18:42.324Z,63.05
2022-08-09T06:19:43.995Z,63.60
2022-08-09T06:20:54.404Z,63.06
2022-08-09T06:21:59.031Z,62.32
2022-08-09T06:23:00.727Z,61.48
2022-08-09T06:24:02.690Z,62.98
2022-08-09T06:25:04.912Z,61.45
2022-08-09T06:26:10.443Z,60.20
2022-08-09T06:27:15.726Z,59.38
2022-08-09T06:28:17.528Z,58.67
2022-08-09T06:29:22.339Z,58.52
2022-08-09T06:30:26.451Z,57.94
2022-08-09T06:31:39.283Z,57.02
2022-08-09T06:33:13.606Z,56.31
2022-08-09T06:34:05.367Z,55.82
2022-08-09T06:35:07.451Z,56.38
2022-08-09T06:36:11.957Z,54.82
2022-08-09T06:37:15.671Z,55.89
2022-08-09T06:38:17.400Z,54.39
2022-08-09T06:39:21.099Z,54.39
2022-08-09T06:40:24.210Z,55.71
2022-08-09T06:42:07.492Z,55.22
2022-08-09T06:42:48.440Z,53.87
2022-08-09T06:43:50.348Z,53.35
2022-08-09T06:44:55.541Z,52.21
2022-08-09T06:46:06.493Z,51.91
2022-08-09T06:47:13.761Z,51.60
2022-08-09T06:48:16.797Z,52.51
2022-08-09T06:50:12.795Z,52.11
2022-08-09T06:50:54.138Z,50.52
2022-08-09T06:51:55.768Z,49.40
2022-08-09T06:52:57.640Z,49.60
2022-08-09T06:54:00.935Z,49.53
2022-08-09T06:55:10.098Z,48.92
2022-08-09T06:56:14.635Z,48.03
2022-08-09T06:57:16.308Z,47.67
2022-08-09T07:00:47.719Z,46.84
2022-08-09T07:00:51.798Z,45.70
2022-08-09T07:01:01.598Z,43.89
2022-08-09T07:02:04.662Z,43.17
2022-08-09T07:03:06.956Z,42.55
2022-08-09T07:04:10.422Z,41.89
2022-08-09T07:05:12.315Z,41.61
2022-08-09T07:06:14.821Z,41.30
2022-08-09T07:07:58.430Z,40.84
2022-08-09T07:08:39.597Z,39.52
2022-08-09T07:09:56.022Z,38.50
2022-08-09T07:11:03.766Z,37.26
2022-08-09T07:12:06.122Z,35.66
2022-08-09T07:13:27.381Z,35.82
2022-08-09T07:14:29.696Z,34.23
2022-08-09T07:16:39.286Z,34.41
2022-08-09T07:16:57.889Z,33.98
2022-08-09T07:18:02.429Z,34.96
2022-08-09T07:19:05.807Z,34.89
2022-08-09T07:20:10.409Z,34.04
2022-08-09T07:21:11.994Z,34.05
2022-08-09T07:22:13.724Z,33.69
2022-08-09T07:23:18.989Z,34.12
2022-08-09T07:24:21.900Z,33.80
2022-08-09T07:25:39.037Z,33.47
2022-08-09T07:26:45.254Z,32.83
2022-08-09T07:27:55.487Z,32.71
2022-08-09T07:29:08.278Z,32.64
2022-08-09T07:30:14.856Z,32.23
2022-08-09T07:31:16.700Z,32.38
2022-08-09T07:32:18.413Z,32.78
2022-08-09T07:33:24.717Z,32.46
2022-08-09T07:34:30.263Z,32.43
2022-08-09T07:35:32.017Z,31.96
2022-08-09T07:36:53.571Z,31.14
2022-08-09T07:37:59.396Z,30.75
2022-08-09T07:39:02.343Z,31.87
2022-08-09T07:40:04.828Z,31.98
2022-08-09T07:41:11.634Z,31.24
2022-08-09T07:42:14.808Z,30.93
2022-08-09T07:43:17.113Z,31.50
2022-08-09T07:44:18.892Z,31.55
2022-08-09T07:45:39.787Z,30.81
2022-08-09T07:46:43.167Z,31.21
2022-08-09T07:48:00.815Z,30.39
2022-08-09T07:49:06.436Z,30.29
2022-08-09T07:50:09.969Z,30.21
2022-08-09T07:52:05.844Z,30.41
2022-08-09T07:52:35.646Z,30.19
2022-08-09T07:54:05.320Z,29.40
2022-08-09T07:55:01.061Z,29.63
2022-08-09T07:56:26.684Z,29.34
2022-08-09T07:57:35.915Z,28.82
2022-08-09T07:58:38.045Z,28.94
2022-08-09T07:59:45.952Z,28.92
2022-08-09T08:01:06.778Z,29.07
2022-08-09T08:02:19.868Z,29.00
2022-08-09T08:03:22.007Z,29.25
2022-08-09T08:04:32.154Z,30.05
2022-08-09T08:05:54.442Z,28.59
2022-08-09T08:07:00.389Z,28.83
2022-08-09T08:09:01.360Z,29.18
2022-08-09T08:09:42.932Z,29.36
2022-08-09T08:11:03.413Z,28.73
2022-08-09T08:12:24.666Z,29.18
2022-08-09T08:13:38.188Z,28.68
2022-08-09T08:14:52.318Z,28.41
2022-08-09T08:15:54.870Z,28.01
2022-08-09T08:17:00.576Z,28.60
2022-08-09T08:18:02.938Z,28.33
2022-08-09T08:19:05.490Z,28.71
2022-08-09T08:20:12.604Z,29.03
2022-08-09T08:21:15.280Z,28.74
2022-08-09T08:22:17.250Z,28.42
2022-08-09T08:23:27.297Z,27.23
2022-08-09T08:24:39.832Z,28.35
2022-08-09T08:25:46.693Z,28.70
2022-08-09T08:26:55.731Z,29.01
2022-08-09T08:27:58.717Z,28.45
2022-08-09T08:29:00.396Z,28.01
2022-08-09T08:30:05.100Z,27.47
2022-08-09T08:31:14.333Z,30.00
2022-08-09T08:32:24.309Z,27.67
2022-08-09T08:33:49.521Z,28.36
2022-08-09T08:34:55.409Z,29.30
2022-08-09T08:36:00.928Z,28.24
2022-08-09T08:37:05.644Z,27.50
2022-08-09T08:38:11.819Z,27.86
2022-08-09T08:39:14.702Z,28.00
2022-08-09T08:40:19.489Z,30.40
2022-08-09T08:41:22.295Z,30.16
2022-08-09T08:42:32.025Z,30.44
2022-08-09T08:43:34.316Z,29.10
2022-08-09T08:44:38.055Z,30.64
2022-08-09T08:45:51.735Z,28.97
2022-08-09T08:47:12.380Z,29.54
2022-08-09T08:48:19.303Z,28.38
2022-08-09T08:49:22.636Z,26.65
2022-08-09T08:50:40.060Z,26.49
2022-08-09T08:52:01.569Z,26.67
2022-08-09T08:53:15.681Z,28.45
2022-08-09T08:54:20.542Z,26.50
2022-08-09T08:55:32.158Z,28.19
2022-08-09T08:56:38.186Z,26.33
2022-08-09T08:57:42.283Z,25.83
2022-08-09T08:58:46.581Z,25.48
2022-08-09T08:59:53.783Z,25.31
2022-08-09T09:01:02.965Z,24.43
2022-08-09T09:02:30.797Z,24.56
2022-08-09T09:03:37.913Z,24.60
2022-08-09T09:04:52.836Z,24.91
2022-08-09T09:06:00.833Z,24.81
2022-08-09T09:07:11.068Z,24.88
2022-08-09T09:08:30.157Z,24.05
2022-08-09T09:09:58.417Z,23.63
2022-08-09T09:10:56.902Z,25.08
2022-08-09T09:12:00.225Z,24.85
2022-08-09T09:13:09.334Z,24.65
2022-08-09T09:14:19.788Z,24.08
2022-08-09T09:15:28.694Z,24.53
2022-08-09T09:16:34.137Z,23.33
2022-08-09T09:17:48.214Z,23.88
2022-08-09T09:19:15.619Z,23.71
2022-08-09T09:20:17.188Z,24.85
2022-08-09T09:21:26.378Z,23.05
2022-08-09T09:22:29.427Z,25.09
2022-08-09T09:23:49.678Z,21.97
2022-08-09T09:26:01.762Z,23.07
2022-08-09T09:26:25.876Z,23.59
2022-08-09T09:28:05.425Z,23.14
2022-08-09T09:29:04.320Z,23.68
2022-08-09T09:30:37.359Z,23.01
2022-08-09T09:32:06.542Z,20.74
2022-08-09T09:33:16.140Z,22.34
2022-08-09T09:34:20.722Z,21.26
2022-08-09T09:35:24.579Z,21.24
2022-08-09T09:36:38.543Z,22.63
2022-08-09T09:37:54.077Z,20.49
2022-08-09T09:38:58.689Z,21.51
2022-08-09T09:40:00.861Z,21.59
2022-08-09T09:41:04.731Z,22.22
2022-08-09T09:42:10.431Z,21.13
2022-08-09T09:43:20.954Z,22.12
2022-08-09T09:44:34.339Z,20.81
2022-08-09T09:47:32.640Z,21.34
2022-08-09T09:48:56.397Z,22.08
2022-08-09T09:50:14.731Z,21.57
2022-08-09T09:51:26.034Z,21.76
2022-08-09T09:52:54.196Z,22.27
2022-08-09T09:54:20.344Z,22.69
2022-08-09T09:55:28.338Z,22.01
2022-08-09T09:56:37.071Z,21.70
2022-08-09T09:58:15.902Z,23.42
2022-08-09T09:59:35.570Z,22.98
2022-08-09T10:00:54.027Z,22.93
2022-08-09T10:02:01.348Z,22.58
2022-08-09T10:03:09.346Z,22.63
2022-08-09T10:04:22.588Z,22.31
2022-08-09T10:06:00.993Z,22.73
2022-08-09T10:06:54.456Z,23.97
2022-08-09T10:08:27.364Z,21.30
2022-08-09T10:09:27.853Z,21.85
2022-08-09T10:10:31.648Z,20.67
2022-08-09T10:11:59.377Z,21.59
2022-08-09T10:12:56.194Z,21.27
2022-08-09T10:13:58.191Z,21.40
2022-08-09T10:15:17.262Z,22.25
2022-08-09T10:16:56.587Z,22.99
2022-08-09T10:18:11.016Z,21.08
2022-08-09T10:19:13.980Z,21.66
2022-08-09T10:20:27.592Z,22.58
2022-08-09T10:21:48.817Z,22.29
2022-08-09T10:23:01.091Z,23.34
2022-08-09T10:24:04.963Z,22.37
2022-08-09T10:25:11.304Z,21.13
2022-08-09T10:26:16.358Z,21.46
2022-08-09T10:27:28.533Z,20.96
2022-08-09T10:28:38.376Z,21.38
2022-08-09T10:30:49.326Z,22.14
2022-08-09T10:32:40.364Z,21.53
2022-08-09T10:34:10.633Z,20.60
2022-08-09T10:35:11.144Z,20.11
2022-08-09T10:36:16.495Z,20.63
2022-08-09T10:37:23.499Z,20.90
2022-08-09T10:38:54.834Z,20.66
2022-08-09T10:39:49.353Z,21.37
2022-08-09T10:40:51.494Z,20.17
2022-08-09T10:41:53.797Z,20.67
2022-08-09T10:42:57.156Z,21.56
2022-08-09T10:44:02.030Z,20.79
2022-08-09T10:45:10.571Z,21.78
2022-08-09T10:46:29.526Z,22.41
2022-08-09T10:48:26.151Z,23.05
2022-08-09T10:49:49.996Z,22.97
2022-08-09T10:51:29.777Z,21.54
2022-08-09T10:53:10.364Z,21.07
2022-08-09T10:54:14.033Z,22.64
2022-08-09T10:55:25.471Z,23.90
2022-08-09T10:56:33.980Z,21.75
2022-08-09T10:57:37.677Z,21.80
2022-08-09T10:58:39.900Z,23.28
2022-08-09T10:59:55.772Z,21.99
2022-08-09T11:03:03.068Z,21.23
2022-08-09T11:03:18.755Z,21.09
2022-08-09T11:04:19.859Z,20.70
2022-08-09T11:05:31.621Z,20.96
2022-08-09T11:06:37.285Z,22.97
2022-08-09T11:07:58.174Z,20.24
2022-08-09T11:09:15.727Z,19.39
2022-08-09T11:10:53.233Z,20.86
2022-08-09T11:11:59.439Z,20.56
2022-08-09T11:13:49.198Z,20.46
2022-08-09T11:14:42.043Z,20.84
2022-08-09T11:16:04.444Z,21.17
2022-08-09T11:17:15.838Z,21.37
2022-08-09T11:18:45.815Z,21.98
2022-08-09T11:20:11.425Z,22.62
2022-08-09T11:21:57.381Z,22.19
2022-08-09T11:23:12.113Z,21.08
2022-08-09T11:24:14.865Z,22.05
2022-08-09T11:25:36.320Z,22.96
2022-08-09T11:26:54.693Z,21.97
2022-08-09T11:28:05.380Z,21.07
2022-08-09T11:30:06.451Z,20.96
2022-08-09T11:31:53.138Z,21.18
2022-08-09T11:32:59.522Z,21.88
2022-08-09T11:34:06.749Z,21.52
2022-08-09T11:35:26.779Z,21.58
2022-08-09T11:36:44.834Z,21.84
2022-08-09T11:37:49.814Z,23.42
2022-08-09T11:39:02.753Z,21.39
2022-08-09T11:40:08.204Z,21.12
2022-08-09T11:41:14.090Z,22.14
2022-08-09T11:42:47.047Z,22.94
2022-08-09T11:43:52.062Z,22.15
2022-08-09T11:44:57.289Z,23.33
2022-08-09T11:46:05.909Z,23.18
2022-08-09T11:47:10.941Z,23.07
2022-08-09T11:48:25.982Z,22.86
2022-08-09T11:50:55.431Z,22.85
2022-08-09T11:53:00.770Z,21.60
2022-08-09T11:53:15.609Z,22.37
2022-08-09T11:54:29.742Z,21.64
2022-08-09T11:55:52.322Z,21.47
2022-08-09T11:57:56.464Z,21.15
2022-08-09T11:59:00.042Z,20.60
2022-08-09T12:00:16.200Z,20.98
2022-08-09T12:02:18.306Z,20.85
2022-08-09T12:02:59.031Z,21.37
2022-08-09T12:04:04.856Z,21.55
2022-08-09T12:05:07.253Z,21.41
2022-08-09T12:06:24.698Z,21.61
2022-08-09T12:07:41.120Z,22.09
2022-08-09T12:08:56.031Z,21.84
2022-08-09T12:10:02.454Z,20.54
2022-08-09T12:11:04.646Z,21.63
2022-08-09T12:12:20.187Z,21.50
2022-08-09T12:14:08.351Z,21.93
2022-08-09T12:15:07.857Z,21.13
2022-08-09T12:16:25.636Z,21.23
2022-08-09T12:17:43.500Z,22.29
2022-08-09T12:18:53.930Z,21.76
2022-08-09T12:19:59.339Z,21.08
2022-08-09T12:21:04.590Z,19.14
2022-08-09T12:22:27.213Z,19.52
2022-08-09T12:23:57.853Z,19.43
2022-08-09T12:25:11.351Z,19.75
2022-08-09T12:26:25.587Z,20.23
2022-08-09T12:28:58.634Z,18.39
2022-08-09T12:29:14.404Z,21.08
2022-08-09T12:30:36.349Z,20.62
2022-08-09T12:32:01.985Z,20.24
2022-08-09T12:33:02.808Z,21.37
2022-08-09T12:34:05.228Z,21.71
2022-08-09T12:35:11.045Z,20.37
2022-08-09T12:36:27.439Z,20.93
2022-08-09T12:37:50.411Z,22.36
2022-08-09T12:38:54.556Z,20.42
2022-08-09T12:40:03.800Z,21.68
2022-08-09T12:41:08.454Z,21.35
2022-08-09T12:42:16.351Z,20.16
2022-08-09T12:44:05.930Z,18.98
2022-08-09T12:44:52.203Z,21.03
2022-08-09T12:45:59.559Z,20.28
2022-08-09T12:47:02.419Z,22.87
2022-08-09T12:48:20.550Z,20.62
2022-08-09T12:49:33.590Z,19.36
2022-08-09T12:50:37.193Z,19.87
2022-08-09T12:52:01.337Z,19.64
2022-08-09T12:53:09.400Z,20.55
2022-08-09T12:54:19.548Z,19.79
2022-08-09T12:56:14.539Z,20.39
2022-08-09T12:56:54.718Z,18.65
2022-08-09T12:57:59.038Z,19.83
2022-08-09T12:59:08.035Z,19.38
2022-08-09T13:00:19.172Z,19.11
2022-08-09T13:01:28.413Z,19.62
2022-08-09T13:02:55.384Z,18.67
2022-08-09T13:04:12.183Z,19.74
2022-08-09T13:05:51.512Z,19.89
2022-08-09T13:07:16.496Z,20.16
2022-08-09T13:08:21.182Z,20.11
2022-08-09T13:09:52.601Z,19.90
2022-08-09T13:10:58.216Z,20.17
2022-08-09T13:12:05.559Z,20.08
2022-08-09T13:13:10.141Z,19.51
2022-08-09T13:14:41.587Z,20.23
2022-08-09T13:15:59.330Z,20.79
2022-08-09T13:17:16.090Z,20.33
2022-08-09T13:18:27.080Z,20.72
2022-08-09T13:20:08.355Z,21.32
2022-08-09T13:22:33.059Z,19.93
2022-08-09T13:22:35.901Z,20.69
2022-08-09T13:24:16.422Z,21.43
2022-08-09T13:25:11.863Z,21.45
2022-08-09T13:26:39.166Z,20.48
2022-08-09T13:27:48.730Z,20.70
2022-08-09T13:29:16.523Z,20.07
2022-08-09T13:31:10.932Z,19.84
2022-08-09T13:32:16.610Z,20.26
2022-08-09T13:33:24.591Z,18.97
2022-08-09T13:34:46.670Z,20.38
2022-08-09T13:36:37.633Z,20.37
2022-08-09T13:37:12.140Z,20.68
2022-08-09T13:38:17.818Z,19.61
2022-08-09T13:41:54.737Z,21.18
2022-08-09T13:41:55.411Z,20.08
2022-08-09T13:42:21.933Z,20.08
2022-08-09T13:43:30.213Z,21.28
2022-08-09T13:44:38.467Z,20.50
2022-08-09T13:46:44.608Z,19.27
2022-08-09T13:47:26.758Z,19.94
2022-08-09T13:48:34.405Z,20.67
2022-08-09T13:49:39.767Z,20.64
2022-08-09T13:50:58.265Z,19.56
2022-08-09T13:52:01.263Z,19.70
2022-08-09T13:53:03.165Z,19.46
2022-08-09T13:54:05.327Z,19.70
2022-08-09T13:55:13.782Z,19.21
2022-08-09T13:56:15.600Z,19.85
2022-08-09T13:57:37.017Z,20.13
2022-08-09T13:58:41.715Z,20.34
2022-08-09T13:59:43.518Z,20.53
2022-08-09T14:00:50.351Z,21.60
2022-08-09T14:02:00.435Z,20.80
2022-08-09T14:04:02.403Z,20.57
2022-08-09T14:04:26.528Z,21.52
2022-08-09T14:05:56.652Z,21.00
2022-08-09T14:06:57.788Z,20.55
2022-08-09T14:08:04.391Z,19.96
2022-08-09T14:09:06.450Z,21.75
2022-08-09T14:10:17.549Z,20.42
2022-08-09T14:11:32.930Z,20.87
2022-08-09T14:12:49.263Z,20.54
2022-08-09T14:14:23.709Z,20.94
2022-08-09T14:16:07.269Z,20.67
2022-08-09T14:16:34.723Z,20.94
2022-08-09T14:18:18.995Z,20.95
2022-08-09T14:18:59.537Z,21.71
2022-08-09T14:20:01.896Z,20.48
2022-08-09T14:21:06.072Z,21.10
2022-08-09T14:22:07.979Z,22.03
2022-08-09T14:23:11.036Z,21.27
2022-08-09T14:24:32.014Z,21.05
2022-08-09T14:25:42.802Z,21.77
2022-08-09T14:26:46.793Z,20.54
2022-08-09T14:27:58.196Z,20.47
2022-08-09T14:29:03.332Z,20.94
2022-08-09T14:30:36.922Z,20.59
2022-08-09T14:31:35.880Z,20.86
2022-08-09T14:32:48.993Z,21.71
2022-08-09T14:33:54.539Z,20.96
2022-08-09T14:34:56.913Z,20.98
2022-08-09T14:35:58.687Z,20.96
2022-08-09T14:37:20.498Z,20.88
2022-08-09T14:38:29.938Z,20.90
2022-08-09T14:39:40.517Z,20.91
2022-08-09T14:41:01.414Z,21.25
2022-08-09T14:42:06.435Z,20.27
2022-08-09T14:43:08.845Z,20.45
2022-08-09T14:44:11.451Z,20.83
2022-08-09T14:46:40.561Z,19.99
2022-08-09T14:46:54.078Z,20.75
2022-08-09T14:47:59.715Z,21.79
2022-08-09T14:49:02.885Z,20.73
2022-08-09T14:50:07.115Z,21.60
2022-08-09T14:51:09.102Z,21.20
2022-08-09T14:52:11.007Z,20.19
2022-08-09T14:53:15.683Z,21.92
2022-08-09T14:54:22.401Z,20.72
2022-08-09T14:55:32.590Z,20.18
2022-08-09T14:56:34.888Z,20.66
2022-08-09T14:57:56.449Z,20.73
2022-08-09T14:59:00.658Z,20.43
2022-08-09T15:00:03.205Z,20.74
2022-08-09T15:01:05.853Z,22.13
2022-08-09T15:02:08.936Z,21.15
2022-08-09T15:03:11.405Z,24.35
2022-08-09T15:04:18.385Z,23.16
2022-08-09T15:05:20.576Z,21.82
2022-08-09T15:06:22.186Z,21.25
2022-08-09T15:07:27.197Z,21.84
2022-08-09T15:08:36.709Z,21.86
2022-08-09T15:10:07.461Z,22.33
2022-08-09T15:11:07.058Z,21.38
2022-08-09T15:12:09.690Z,21.11
2022-08-09T15:13:13.308Z,20.90
2022-08-09T15:14:15.320Z,20.13
2022-08-09T15:15:21.946Z,21.60
2022-08-09T15:16:24.084Z,21.08
2022-08-09T15:17:32.105Z,21.03